sensor_id;sensor_type;location;lat;lon;timestamp;P1;durP1;ratioP1;P2;durP2;ratioP2
25153;SDS011;47555;51.038;6.280;2022-09-09T00:00:49;1.00;;;0.82;;
25153;SDS011;47555;51.038;6.280;2022-09-09T00:03:26;0.80;;;0.80;;
25153;SDS011;47555;51.038;6.280;2022-09-09T00:06:03;1.13;;;0.80;;
25153;SDS011;47555;51.038;6.280;2022-09-09T00:08:50;1.10;;;0.93;;
25153;SDS011;47555;51.038;6.280;2022-09-09T00:11:26;1.67;;;0.88;;
25153;SDS011;47555;51.038;6.280;2022-09-09T00:14:26;1.98;;;1.20;;
25153;SDS011;47555;51.038;6.280;2022-09-09T00:17:04;2.08;;;1.17;;
25153;SDS011;47555;51.038;6.280;2022-09-09T00:22:25;1.38;;;1.20;;
25153;SDS011;47555;51.038;6.280;2022-09-09T00:24:56;2.35;;;1.42;;
25153;SDS011;47555;51.038;6.280;2022-09-09T00:30:14;3.20;;;1.05;;
25153;SDS011;47555;51.038;6.280;2022-09-09T00:32:47;2.70;;;1.30;;
25153;SDS011;47555;51.038;6.280;2022-09-09T00:35:37;3.83;;;1.30;;
25153;SDS011;47555;51.038;6.280;2022-09-09T00:38:13;2.60;;;1.20;;
25153;SDS011;47555;51.038;6.280;2022-09-09T00:40:54;1.60;;;1.30;;
25153;SDS011;47555;51.038;6.280;2022-09-09T00:43:30;1.75;;;1.35;;
25153;SDS011;47555;51.038;6.280;2022-09-09T00:46:10;1.98;;;1.42;;
25153;SDS011;47555;51.038;6.280;2022-09-09T00:54:45;2.15;;;0.90;;
25153;SDS011;47555;51.038;6.280;2022-09-09T00:59:52;2.05;;;0.90;;
25153;SDS011;47555;51.038;6.280;2022-09-09T01:02:42;1.30;;;0.80;;
25153;SDS011;47555;51.038;6.280;2022-09-09T01:05:26;1.42;;;1.02;;
25153;SDS011;47555;51.038;6.280;2022-09-09T01:08:00;1.20;;;0.90;;
25153;SDS011;47555;51.038;6.280;2022-09-09T01:13:31;1.98;;;1.08;;
25153;SDS011;47555;51.038;6.280;2022-09-09T01:16:00;1.20;;;1.10;;
25153;SDS011;47555;51.038;6.280;2022-09-09T01:18:32;1.52;;;0.80;;
25153;SDS011;47555;51.038;6.280;2022-09-09T01:23:57;2.60;;;1.00;;
25153;SDS011;47555;51.038;6.280;2022-09-09T01:26:44;1.25;;;1.00;;
25153;SDS011;47555;51.038;6.280;2022-09-09T01:29:12;3.22;;;0.90;;
25153;SDS011;47555;51.038;6.280;2022-09-09T01:31:52;2.30;;;1.08;;
25153;SDS011;47555;51.038;6.280;2022-09-09T01:34:19;1.50;;;0.90;;
25153;SDS011;47555;51.038;6.280;2022-09-09T01:36:49;1.52;;;1.00;;
25153;SDS011;47555;51.038;6.280;2022-09-09T01:39:18;2.85;;;1.05;;
25153;SDS011;47555;51.038;6.280;2022-09-09T01:41:44;3.13;;;1.42;;
25153;SDS011;47555;51.038;6.280;2022-09-09T01:44:09;2.03;;;0.90;;
25153;SDS011;47555;51.038;6.280;2022-09-09T01:46:35;5.22;;;1.48;;
25153;SDS011;47555;51.038;6.280;2022-09-09T01:49:02;3.88;;;1.35;;
25153;SDS011;47555;51.038;6.280;2022-09-09T01:51:30;1.10;;;1.00;;
25153;SDS011;47555;51.038;6.280;2022-09-09T01:53:56;4.45;;;1.33;;
25153;SDS011;47555;51.038;6.280;2022-09-09T02:04:40;2.78;;;0.90;;
25153;SDS011;47555;51.038;6.280;2022-09-09T02:10:22;1.27;;;1.00;;
25153;SDS011;47555;51.038;6.280;2022-09-09T02:12:53;2.17;;;0.90;;
25153;SDS011;47555;51.038;6.280;2022-09-09T02:18:10;1.50;;;1.23;;
25153;SDS011;47555;51.038;6.280;2022-09-09T02:20:39;2.95;;;1.40;;
25153;SDS011;47555;51.038;6.280;2022-09-09T02:23:06;4.70;;;1.45;;
25153;SDS011;47555;51.038;6.280;2022-09-09T02:25:33;2.60;;;1.52;;
25153;SDS011;47555;51.038;6.280;2022-09-09T02:28:01;2.28;;;1.20;;
25153;SDS011;47555;51.038;6.280;2022-09-09T02:30:30;4.68;;;1.48;;
25153;SDS011;47555;51.038;6.280;2022-09-09T02:32:57;2.88;;;1.35;;
25153;SDS011;47555;51.038;6.280;2022-09-09T02:35:24;1.85;;;1.10;;
25153;SDS011;47555;51.038;6.280;2022-09-09T02:37:53;3.72;;;1.40;;
25153;SDS011;47555;51.038;6.280;2022-09-09T02:40:21;3.63;;;1.52;;
25153;SDS011;47555;51.038;6.280;2022-09-09T02:42:48;1.73;;;1.05;;
25153;SDS011;47555;51.038;6.280;2022-09-09T02:45:16;1.95;;;1.30;;
25153;SDS011;47555;51.038;6.280;2022-09-09T02:47:51;4.78;;;1.40;;
25153;SDS011;47555;51.038;6.280;2022-09-09T02:50:45;3.47;;;1.40;;
25153;SDS011;47555;51.038;6.280;2022-09-09T02:53:18;2.03;;;1.58;;
25153;SDS011;47555;51.038;6.280;2022-09-09T02:55:52;3.45;;;1.50;;
25153;SDS011;47555;51.038;6.280;2022-09-09T02:58:34;3.15;;;1.35;;
25153;SDS011;47555;51.038;6.280;2022-09-09T03:01:01;2.17;;;1.50;;
25153;SDS011;47555;51.038;6.280;2022-09-09T03:03:29;3.28;;;1.38;;
25153;SDS011;47555;51.038;6.280;2022-09-09T03:05:55;2.70;;;1.30;;
25153;SDS011;47555;51.038;6.280;2022-09-09T03:08:21;5.95;;;1.85;;
25153;SDS011;47555;51.038;6.280;2022-09-09T03:10:47;9.55;;;2.92;;
25153;SDS011;47555;51.038;6.280;2022-09-09T03:13:12;3.88;;;1.92;;
25153;SDS011;47555;51.038;6.280;2022-09-09T03:15:40;4.40;;;1.70;;
25153;SDS011;47555;51.038;6.280;2022-09-09T03:18:06;4.35;;;1.60;;
25153;SDS011;47555;51.038;6.280;2022-09-09T03:20:31;3.92;;;1.63;;
25153;SDS011;47555;51.038;6.280;2022-09-09T03:22:57;4.05;;;1.60;;
25153;SDS011;47555;51.038;6.280;2022-09-09T03:25:24;3.63;;;1.40;;
25153;SDS011;47555;51.038;6.280;2022-09-09T03:27:51;2.88;;;1.48;;
25153;SDS011;47555;51.038;6.280;2022-09-09T03:30:19;7.07;;;1.55;;
25153;SDS011;47555;51.038;6.280;2022-09-09T03:32:45;3.50;;;1.73;;
25153;SDS011;47555;51.038;6.280;2022-09-09T03:35:11;5.40;;;1.73;;
25153;SDS011;47555;51.038;6.280;2022-09-09T03:37:36;2.05;;;1.50;;
25153;SDS011;47555;51.038;6.280;2022-09-09T03:40:03;4.55;;;1.50;;
25153;SDS011;47555;51.038;6.280;2022-09-09T03:42:29;3.05;;;1.55;;
25153;SDS011;47555;51.038;6.280;2022-09-09T03:44:56;3.67;;;1.60;;
25153;SDS011;47555;51.038;6.280;2022-09-09T03:47:22;4.88;;;1.60;;
25153;SDS011;47555;51.038;6.280;2022-09-09T03:49:48;5.60;;;2.00;;
25153;SDS011;47555;51.038;6.280;2022-09-09T03:52:14;4.53;;;1.60;;
25153;SDS011;47555;51.038;6.280;2022-09-09T03:54:41;10.60;;;1.75;;
25153;SDS011;47555;51.038;6.280;2022-09-09T03:57:07;5.05;;;1.70;;
25153;SDS011;47555;51.038;6.280;2022-09-09T03:59:36;3.17;;;1.73;;
25153;SDS011;47555;51.038;6.280;2022-09-09T04:02:01;4.75;;;1.63;;
25153;SDS011;47555;51.038;6.280;2022-09-09T04:04:27;5.18;;;2.00;;
25153;SDS011;47555;51.038;6.280;2022-09-09T04:06:53;4.07;;;1.60;;
25153;SDS011;47555;51.038;6.280;2022-09-09T04:09:18;4.15;;;1.80;;
25153;SDS011;47555;51.038;6.280;2022-09-09T04:11:44;3.42;;;1.80;;
25153;SDS011;47555;51.038;6.280;2022-09-09T04:14:11;3.47;;;1.70;;
25153;SDS011;47555;51.038;6.280;2022-09-09T04:16:37;4.10;;;1.70;;
25153;SDS011;47555;51.038;6.280;2022-09-09T04:19:03;2.80;;;1.60;;
25153;SDS011;47555;51.038;6.280;2022-09-09T04:21:29;4.88;;;1.88;;
25153;SDS011;47555;51.038;6.280;2022-09-09T04:23:55;5.32;;;1.80;;
25153;SDS011;47555;51.038;6.280;2022-09-09T04:26:21;2.92;;;1.60;;
25153;SDS011;47555;51.038;6.280;2022-09-09T04:28:47;3.78;;;2.00;;
25153;SDS011;47555;51.038;6.280;2022-09-09T04:31:17;5.97;;;1.92;;
25153;SDS011;47555;51.038;6.280;2022-09-09T04:36:11;3.70;;;1.70;;
25153;SDS011;47555;51.038;6.280;2022-09-09T04:38:38;3.58;;;1.55;;
25153;SDS011;47555;51.038;6.280;2022-09-09T04:41:04;5.70;;;2.10;;
25153;SDS011;47555;51.038;6.280;2022-09-09T04:43:30;3.83;;;1.70;;
25153;SDS011;47555;51.038;6.280;2022-09-09T04:45:56;3.90;;;1.60;;
25153;SDS011;47555;51.038;6.280;2022-09-09T04:48:22;5.50;;;1.67;;
25153;SDS011;47555;51.038;6.280;2022-09-09T04:50:59;5.38;;;1.63;;
25153;SDS011;47555;51.038;6.280;2022-09-09T04:53:31;6.63;;;2.35;;
25153;SDS011;47555;51.038;6.280;2022-09-09T04:56:05;5.32;;;1.77;;
25153;SDS011;47555;51.038;6.280;2022-09-09T04:58:35;5.05;;;1.50;;
25153;SDS011;47555;51.038;6.280;2022-09-09T05:03:33;3.90;;;1.80;;
25153;SDS011;47555;51.038;6.280;2022-09-09T05:06:06;2.80;;;1.60;;
25153;SDS011;47555;51.038;6.280;2022-09-09T05:08:34;5.10;;;1.65;;
25153;SDS011;47555;51.038;6.280;2022-09-09T05:11:01;5.55;;;1.80;;
25153;SDS011;47555;51.038;6.280;2022-09-09T05:13:27;6.00;;;2.05;;
25153;SDS011;47555;51.038;6.280;2022-09-09T05:15:53;3.90;;;1.55;;
25153;SDS011;47555;51.038;6.280;2022-09-09T05:18:19;4.53;;;1.50;;
25153;SDS011;47555;51.038;6.280;2022-09-09T05:20:47;4.95;;;1.70;;
25153;SDS011;47555;51.038;6.280;2022-09-09T05:23:13;2.13;;;1.38;;
25153;SDS011;47555;51.038;6.280;2022-09-09T05:25:39;4.50;;;1.70;;
25153;SDS011;47555;51.038;6.280;2022-09-09T05:28:06;3.45;;;1.50;;
25153;SDS011;47555;51.038;6.280;2022-09-09T05:30:32;3.92;;;1.67;;
25153;SDS011;47555;51.038;6.280;2022-09-09T05:32:58;3.75;;;1.73;;
25153;SDS011;47555;51.038;6.280;2022-09-09T05:35:24;5.07;;;1.83;;
25153;SDS011;47555;51.038;6.280;2022-09-09T05:37:50;4.13;;;1.42;;
25153;SDS011;47555;51.038;6.280;2022-09-09T05:40:16;3.60;;;1.63;;
25153;SDS011;47555;51.038;6.280;2022-09-09T05:42:41;8.15;;;1.90;;
25153;SDS011;47555;51.038;6.280;2022-09-09T05:45:07;4.63;;;2.08;;
25153;SDS011;47555;51.038;6.280;2022-09-09T05:47:34;3.47;;;1.52;;
25153;SDS011;47555;51.038;6.280;2022-09-09T05:50:02;6.75;;;1.52;;
25153;SDS011;47555;51.038;6.280;2022-09-09T05:52:28;4.82;;;1.60;;
25153;SDS011;47555;51.038;6.280;2022-09-09T05:54:54;7.05;;;1.75;;
25153;SDS011;47555;51.038;6.280;2022-09-09T05:57:20;2.95;;;1.48;;
25153;SDS011;47555;51.038;6.280;2022-09-09T05:59:45;5.25;;;1.70;;
25153;SDS011;47555;51.038;6.280;2022-09-09T06:02:11;4.20;;;1.50;;
25153;SDS011;47555;51.038;6.280;2022-09-09T06:04:37;4.80;;;1.67;;
25153;SDS011;47555;51.038;6.280;2022-09-09T06:07:04;7.53;;;1.80;;
25153;SDS011;47555;51.038;6.280;2022-09-09T06:09:30;4.10;;;1.67;;
25153;SDS011;47555;51.038;6.280;2022-09-09T06:11:56;3.97;;;1.40;;
25153;SDS011;47555;51.038;6.280;2022-09-09T06:14:23;4.15;;;1.40;;
25153;SDS011;47555;51.038;6.280;2022-09-09T06:16:50;3.95;;;1.35;;
25153;SDS011;47555;51.038;6.280;2022-09-09T06:19:16;4.07;;;1.63;;
25153;SDS011;47555;51.038;6.280;2022-09-09T06:21:41;3.35;;;1.70;;
25153;SDS011;47555;51.038;6.280;2022-09-09T06:24:07;4.55;;;1.40;;
25153;SDS011;47555;51.038;6.280;2022-09-09T06:26:34;3.75;;;1.33;;
25153;SDS011;47555;51.038;6.280;2022-09-09T06:29:02;6.43;;;1.70;;
25153;SDS011;47555;51.038;6.280;2022-09-09T06:31:33;6.43;;;1.90;;
25153;SDS011;47555;51.038;6.280;2022-09-09T06:34:06;6.50;;;1.70;;
25153;SDS011;47555;51.038;6.280;2022-09-09T06:36:33;7.05;;;1.65;;
25153;SDS011;47555;51.038;6.280;2022-09-09T06:39:02;4.32;;;1.60;;
25153;SDS011;47555;51.038;6.280;2022-09-09T06:41:28;3.67;;;1.30;;
25153;SDS011;47555;51.038;6.280;2022-09-09T06:43:55;7.15;;;1.60;;
25153;SDS011;47555;51.038;6.280;2022-09-09T06:46:22;5.18;;;1.50;;
25153;SDS011;47555;51.038;6.280;2022-09-09T06:48:53;3.67;;;1.50;;
25153;SDS011;47555;51.038;6.280;2022-09-09T06:51:20;2.08;;;1.25;;
25153;SDS011;47555;51.038;6.280;2022-09-09T06:53:49;4.10;;;1.73;;
25153;SDS011;47555;51.038;6.280;2022-09-09T06:58:41;5.10;;;1.55;;
25153;SDS011;47555;51.038;6.280;2022-09-09T07:01:10;3.70;;;1.40;;
25153;SDS011;47555;51.038;6.280;2022-09-09T07:03:37;7.43;;;1.48;;
25153;SDS011;47555;51.038;6.280;2022-09-09T07:06:03;4.25;;;1.90;;
25153;SDS011;47555;51.038;6.280;2022-09-09T07:08:29;6.43;;;1.30;;
25153;SDS011;47555;51.038;6.280;2022-09-09T07:11:01;3.92;;;1.20;;
25153;SDS011;47555;51.038;6.280;2022-09-09T07:13:29;2.55;;;1.17;;
25153;SDS011;47555;51.038;6.280;2022-09-09T07:15:56;5.65;;;1.50;;
25153;SDS011;47555;51.038;6.280;2022-09-09T07:18:31;4.47;;;1.50;;
25153;SDS011;47555;51.038;6.280;2022-09-09T07:20:58;5.38;;;1.40;;
25153;SDS011;47555;51.038;6.280;2022-09-09T07:23:24;6.60;;;1.33;;
25153;SDS011;47555;51.038;6.280;2022-09-09T07:25:50;3.33;;;1.40;;
25153;SDS011;47555;51.038;6.280;2022-09-09T07:28:18;4.05;;;1.40;;
25153;SDS011;47555;51.038;6.280;2022-09-09T07:30:54;4.88;;;1.30;;
25153;SDS011;47555;51.038;6.280;2022-09-09T07:33:21;4.65;;;1.40;;
25153;SDS011;47555;51.038;6.280;2022-09-09T07:35:51;5.15;;;1.40;;
25153;SDS011;47555;51.038;6.280;2022-09-09T07:38:17;3.08;;;1.33;;
25153;SDS011;47555;51.038;6.280;2022-09-09T07:40:45;7.80;;;1.70;;
25153;SDS011;47555;51.038;6.280;2022-09-09T07:43:11;7.43;;;1.10;;
25153;SDS011;47555;51.038;6.280;2022-09-09T07:45:37;3.80;;;1.38;;
25153;SDS011;47555;51.038;6.280;2022-09-09T07:48:03;4.38;;;1.50;;
25153;SDS011;47555;51.038;6.280;2022-09-09T07:50:30;4.45;;;1.17;;
25153;SDS011;47555;51.038;6.280;2022-09-09T07:52:56;4.35;;;1.40;;
25153;SDS011;47555;51.038;6.280;2022-09-09T07:55:21;8.00;;;1.20;;
25153;SDS011;47555;51.038;6.280;2022-09-09T07:57:52;5.70;;;1.52;;
25153;SDS011;47555;51.038;6.280;2022-09-09T08:00:18;6.75;;;1.25;;
25153;SDS011;47555;51.038;6.280;2022-09-09T08:02:45;4.03;;;1.48;;
25153;SDS011;47555;51.038;6.280;2022-09-09T08:05:11;2.90;;;1.05;;
25153;SDS011;47555;51.038;6.280;2022-09-09T08:07:37;4.78;;;1.75;;
25153;SDS011;47555;51.038;6.280;2022-09-09T08:10:03;5.15;;;1.20;;
25153;SDS011;47555;51.038;6.280;2022-09-09T08:12:31;4.80;;;1.20;;
25153;SDS011;47555;51.038;6.280;2022-09-09T08:14:57;3.85;;;1.35;;
25153;SDS011;47555;51.038;6.280;2022-09-09T08:17:22;2.72;;;1.17;;
25153;SDS011;47555;51.038;6.280;2022-09-09T08:19:48;2.78;;;1.02;;
25153;SDS011;47555;51.038;6.280;2022-09-09T08:22:13;3.78;;;1.40;;
25153;SDS011;47555;51.038;6.280;2022-09-09T08:24:39;7.68;;;1.40;;
25153;SDS011;47555;51.038;6.280;2022-09-09T08:27:05;2.60;;;1.00;;
25153;SDS011;47555;51.038;6.280;2022-09-09T08:29:31;6.47;;;1.40;;
25153;SDS011;47555;51.038;6.280;2022-09-09T08:31:58;5.22;;;1.50;;
25153;SDS011;47555;51.038;6.280;2022-09-09T08:34:25;4.47;;;1.73;;
25153;SDS011;47555;51.038;6.280;2022-09-09T08:36:52;6.57;;;1.77;;
25153;SDS011;47555;51.038;6.280;2022-09-09T08:39:19;3.60;;;1.13;;
25153;SDS011;47555;51.038;6.280;2022-09-09T08:52:36;2.40;;;1.23;;
25153;SDS011;47555;51.038;6.280;2022-09-09T08:55:20;4.65;;;1.23;;
25153;SDS011;47555;51.038;6.280;2022-09-09T08:57:51;5.50;;;1.20;;
25153;SDS011;47555;51.038;6.280;2022-09-09T09:02:55;6.00;;;1.20;;
25153;SDS011;47555;51.038;6.280;2022-09-09T09:06:16;4.10;;;1.23;;
25153;SDS011;47555;51.038;6.280;2022-09-09T09:09:11;3.85;;;1.40;;
25153;SDS011;47555;51.038;6.280;2022-09-09T09:11:56;6.28;;;1.27;;
25153;SDS011;47555;51.038;6.280;2022-09-09T09:14:26;6.57;;;1.17;;
25153;SDS011;47555;51.038;6.280;2022-09-09T09:19:58;3.13;;;1.33;;
25153;SDS011;47555;51.038;6.280;2022-09-09T09:25:12;3.30;;;1.10;;
25153;SDS011;47555;51.038;6.280;2022-09-09T09:28:03;6.00;;;1.13;;
25153;SDS011;47555;51.038;6.280;2022-09-09T09:30:48;2.22;;;0.90;;
25153;SDS011;47555;51.038;6.280;2022-09-09T09:33:19;1.95;;;1.00;;
25153;SDS011;47555;51.038;6.280;2022-09-09T09:35:49;5.13;;;1.17;;
25153;SDS011;47555;51.038;6.280;2022-09-09T09:38:25;2.20;;;0.90;;
25153;SDS011;47555;51.038;6.280;2022-09-09T09:40:53;1.75;;;1.15;;
25153;SDS011;47555;51.038;6.280;2022-09-09T09:43:36;2.60;;;1.05;;
25153;SDS011;47555;51.038;6.280;2022-09-09T09:46:05;2.20;;;0.80;;
25153;SDS011;47555;51.038;6.280;2022-09-09T09:48:42;2.97;;;1.00;;
25153;SDS011;47555;51.038;6.280;2022-09-09T09:51:09;3.58;;;1.10;;
25153;SDS011;47555;51.038;6.280;2022-09-09T09:53:38;2.80;;;1.10;;
25153;SDS011;47555;51.038;6.280;2022-09-09T09:56:05;3.78;;;1.15;;
25153;SDS011;47555;51.038;6.280;2022-09-09T09:58:56;6.22;;;1.10;;
25153;SDS011;47555;51.038;6.280;2022-09-09T10:01:25;4.70;;;1.08;;
25153;SDS011;47555;51.038;6.280;2022-09-09T10:04:02;6.18;;;1.00;;
25153;SDS011;47555;51.038;6.280;2022-09-09T10:20:18;3.42;;;1.17;;
25153;SDS011;47555;51.038;6.280;2022-09-09T10:28:49;4.78;;;1.00;;
25153;SDS011;47555;51.038;6.280;2022-09-09T10:37:00;2.65;;;1.08;;
25153;SDS011;47555;51.038;6.280;2022-09-09T10:42:15;2.03;;;1.20;;
25153;SDS011;47555;51.038;6.280;2022-09-09T10:50:35;2.95;;;1.00;;
25153;SDS011;47555;51.038;6.280;2022-09-09T10:53:22;3.15;;;1.10;;
25153;SDS011;47555;51.038;6.280;2022-09-09T10:56:11;4.38;;;1.08;;
25153;SDS011;47555;51.038;6.280;2022-09-09T10:58:42;4.43;;;1.20;;
25153;SDS011;47555;51.038;6.280;2022-09-09T11:01:18;2.80;;;1.10;;
25153;SDS011;47555;51.038;6.280;2022-09-09T11:03:52;3.22;;;1.45;;
25153;SDS011;47555;51.038;6.280;2022-09-09T11:06:25;2.03;;;1.05;;
25153;SDS011;47555;51.038;6.280;2022-09-09T11:08:58;4.22;;;1.13;;
25153;SDS011;47555;51.038;6.280;2022-09-09T11:11:28;2.40;;;0.98;;
25153;SDS011;47555;51.038;6.280;2022-09-09T11:14:12;2.25;;;1.00;;
25153;SDS011;47555;51.038;6.280;2022-09-09T11:17:03;1.05;;;0.80;;
25153;SDS011;47555;51.038;6.280;2022-09-09T11:19:39;2.25;;;0.80;;
25153;SDS011;47555;51.038;6.280;2022-09-09T11:24:51;3.25;;;0.95;;
25153;SDS011;47555;51.038;6.280;2022-09-09T11:33:00;5.35;;;1.10;;
25153;SDS011;47555;51.038;6.280;2022-09-09T11:40:40;1.88;;;0.85;;
25153;SDS011;47555;51.038;6.280;2022-09-09T11:43:10;2.50;;;0.90;;
25153;SDS011;47555;51.038;6.280;2022-09-09T11:45:37;4.90;;;1.30;;
25153;SDS011;47555;51.038;6.280;2022-09-09T11:48:05;2.67;;;1.00;;
25153;SDS011;47555;51.038;6.280;2022-09-09T11:50:46;2.10;;;0.93;;
25153;SDS011;47555;51.038;6.280;2022-09-09T11:53:28;2.92;;;1.08;;
25153;SDS011;47555;51.038;6.280;2022-09-09T11:58:57;4.60;;;1.10;;
25153;SDS011;47555;51.038;6.280;2022-09-09T12:04:11;3.35;;;1.27;;
25153;SDS011;47555;51.038;6.280;2022-09-09T12:06:52;2.92;;;1.23;;
25153;SDS011;47555;51.038;6.280;2022-09-09T12:09:29;2.33;;;1.30;;
25153;SDS011;47555;51.038;6.280;2022-09-09T12:12:22;4.57;;;1.45;;
25153;SDS011;47555;51.038;6.280;2022-09-09T12:15:16;2.58;;;1.40;;
25153;SDS011;47555;51.038;6.280;2022-09-09T12:17:46;3.42;;;2.03;;
25153;SDS011;47555;51.038;6.280;2022-09-09T12:20:17;3.28;;;1.30;;
25153;SDS011;47555;51.038;6.280;2022-09-09T12:22:51;3.03;;;1.63;;
25153;SDS011;47555;51.038;6.280;2022-09-09T12:28:58;2.00;;;1.27;;
25153;SDS011;47555;51.038;6.280;2022-09-09T12:37:06;3.05;;;1.60;;
25153;SDS011;47555;51.038;6.280;2022-09-09T12:39:51;3.03;;;1.60;;
25153;SDS011;47555;51.038;6.280;2022-09-09T12:42:21;4.03;;;1.70;;
25153;SDS011;47555;51.038;6.280;2022-09-09T12:44:51;3.42;;;1.35;;
25153;SDS011;47555;51.038;6.280;2022-09-09T12:47:17;5.25;;;2.20;;
25153;SDS011;47555;51.038;6.280;2022-09-09T12:49:47;2.70;;;1.10;;
25153;SDS011;47555;51.038;6.280;2022-09-09T12:52:26;2.35;;;1.30;;
25153;SDS011;47555;51.038;6.280;2022-09-09T12:54:55;3.92;;;1.52;;
25153;SDS011;47555;51.038;6.280;2022-09-09T12:57:22;2.65;;;1.48;;
25153;SDS011;47555;51.038;6.280;2022-09-09T12:59:50;2.78;;;1.20;;
25153;SDS011;47555;51.038;6.280;2022-09-09T13:04:49;3.00;;;1.30;;
25153;SDS011;47555;51.038;6.280;2022-09-09T13:07:16;4.15;;;1.40;;
25153;SDS011;47555;51.038;6.280;2022-09-09T13:09:43;2.92;;;1.25;;
25153;SDS011;47555;51.038;6.280;2022-09-09T13:12:13;2.40;;;1.40;;
25153;SDS011;47555;51.038;6.280;2022-09-09T13:14:43;1.05;;;1.00;;
25153;SDS011;47555;51.038;6.280;2022-09-09T13:17:22;0.80;;;0.80;;
25153;SDS011;47555;51.038;6.280;2022-09-09T13:19:50;3.08;;;1.00;;
25153;SDS011;47555;51.038;6.280;2022-09-09T13:22:29;3.65;;;1.33;;
25153;SDS011;47555;51.038;6.280;2022-09-09T13:27:29;4.05;;;1.30;;
25153;SDS011;47555;51.038;6.280;2022-09-09T13:30:19;3.30;;;1.50;;
25153;SDS011;47555;51.038;6.280;2022-09-09T13:32:46;4.65;;;1.35;;
25153;SDS011;47555;51.038;6.280;2022-09-09T13:35:22;2.53;;;1.30;;
25153;SDS011;47555;51.038;6.280;2022-09-09T13:37:48;2.35;;;1.10;;
25153;SDS011;47555;51.038;6.280;2022-09-09T13:40:18;1.27;;;1.10;;
25153;SDS011;47555;51.038;6.280;2022-09-09T13:42:46;3.75;;;1.33;;
25153;SDS011;47555;51.038;6.280;2022-09-09T13:45:19;3.97;;;1.17;;
25153;SDS011;47555;51.038;6.280;2022-09-09T13:47:46;3.17;;;1.52;;
25153;SDS011;47555;51.038;6.280;2022-09-09T13:50:28;4.15;;;1.55;;
25153;SDS011;47555;51.038;6.280;2022-09-09T13:52:55;2.85;;;1.65;;
25153;SDS011;47555;51.038;6.280;2022-09-09T13:55:23;3.38;;;1.38;;
25153;SDS011;47555;51.038;6.280;2022-09-09T13:57:53;0.68;;;0.40;;
25153;SDS011;47555;51.038;6.280;2022-09-09T14:00:21;0.47;;;0.30;;
25153;SDS011;47555;51.038;6.280;2022-09-09T14:02:50;0.65;;;0.40;;
25153;SDS011;47555;51.038;6.280;2022-09-09T14:05:19;0.65;;;0.65;;
25153;SDS011;47555;51.038;6.280;2022-09-09T14:07:45;3.05;;;0.60;;
25153;SDS011;47555;51.038;6.280;2022-09-09T14:10:11;2.25;;;0.60;;
25153;SDS011;47555;51.038;6.280;2022-09-09T14:12:37;5.07;;;1.23;;
25153;SDS011;47555;51.038;6.280;2022-09-09T14:15:03;3.78;;;0.80;;
25153;SDS011;47555;51.038;6.280;2022-09-09T14:17:30;1.88;;;0.50;;
25153;SDS011;47555;51.038;6.280;2022-09-09T14:19:56;1.30;;;0.50;;
25153;SDS011;47555;51.038;6.280;2022-09-09T14:22:22;1.58;;;0.60;;
25153;SDS011;47555;51.038;6.280;2022-09-09T14:24:48;1.33;;;0.50;;
25153;SDS011;47555;51.038;6.280;2022-09-09T14:27:14;1.58;;;0.85;;
25153;SDS011;47555;51.038;6.280;2022-09-09T14:29:40;1.42;;;0.80;;
25153;SDS011;47555;51.038;6.280;2022-09-09T14:32:06;1.95;;;0.70;;
25153;SDS011;47555;51.038;6.280;2022-09-09T14:34:31;1.52;;;0.90;;
25153;SDS011;47555;51.038;6.280;2022-09-09T14:36:57;2.40;;;0.98;;
25153;SDS011;47555;51.038;6.280;2022-09-09T14:39:23;0.85;;;0.60;;
25153;SDS011;47555;51.038;6.280;2022-09-09T14:41:48;1.52;;;0.80;;
25153;SDS011;47555;51.038;6.280;2022-09-09T14:44:14;1.15;;;0.80;;
25153;SDS011;47555;51.038;6.280;2022-09-09T14:46:41;1.85;;;0.88;;
25153;SDS011;47555;51.038;6.280;2022-09-09T14:49:07;2.55;;;0.90;;
25153;SDS011;47555;51.038;6.280;2022-09-09T14:51:33;1.30;;;0.90;;
25153;SDS011;47555;51.038;6.280;2022-09-09T14:53:59;1.13;;;0.82;;
25153;SDS011;47555;51.038;6.280;2022-09-09T14:56:26;1.60;;;0.75;;
25153;SDS011;47555;51.038;6.280;2022-09-09T14:58:54;2.33;;;0.88;;
25153;SDS011;47555;51.038;6.280;2022-09-09T15:01:21;1.17;;;0.80;;
25153;SDS011;47555;51.038;6.280;2022-09-09T15:03:51;2.42;;;0.90;;
25153;SDS011;47555;51.038;6.280;2022-09-09T15:06:22;1.38;;;0.80;;
25153;SDS011;47555;51.038;6.280;2022-09-09T15:08:49;3.00;;;0.90;;
25153;SDS011;47555;51.038;6.280;2022-09-09T15:11:17;1.73;;;0.80;;
25153;SDS011;47555;51.038;6.280;2022-09-09T15:13:43;1.23;;;1.10;;
25153;SDS011;47555;51.038;6.280;2022-09-09T15:16:13;3.92;;;0.90;;
25153;SDS011;47555;51.038;6.280;2022-09-09T15:18:42;1.48;;;1.00;;
25153;SDS011;47555;51.038;6.280;2022-09-09T15:21:10;2.33;;;1.50;;
25153;SDS011;47555;51.038;6.280;2022-09-09T15:23:37;3.58;;;1.80;;
25153;SDS011;47555;51.038;6.280;2022-09-09T15:26:03;5.68;;;2.20;;
25153;SDS011;47555;51.038;6.280;2022-09-09T15:28:30;6.30;;;2.80;;
25153;SDS011;47555;51.038;6.280;2022-09-09T15:30:57;3.63;;;2.17;;
25153;SDS011;47555;51.038;6.280;2022-09-09T15:33:24;3.83;;;2.35;;
25153;SDS011;47555;51.038;6.280;2022-09-09T15:35:50;3.75;;;1.90;;
25153;SDS011;47555;51.038;6.280;2022-09-09T15:38:16;5.47;;;2.10;;
25153;SDS011;47555;51.038;6.280;2022-09-09T15:40:42;4.88;;;1.50;;
25153;SDS011;47555;51.038;6.280;2022-09-09T15:43:08;3.80;;;1.77;;
25153;SDS011;47555;51.038;6.280;2022-09-09T15:45:35;2.80;;;1.40;;
25153;SDS011;47555;51.038;6.280;2022-09-09T15:48:01;5.38;;;1.83;;
25153;SDS011;47555;51.038;6.280;2022-09-09T15:50:28;5.70;;;1.60;;
25153;SDS011;47555;51.038;6.280;2022-09-09T15:52:57;1.88;;;1.30;;
25153;SDS011;47555;51.038;6.280;2022-09-09T15:55:23;2.55;;;1.35;;
25153;SDS011;47555;51.038;6.280;2022-09-09T15:57:49;3.97;;;1.50;;
25153;SDS011;47555;51.038;6.280;2022-09-09T16:00:17;2.92;;;1.63;;
25153;SDS011;47555;51.038;6.280;2022-09-09T16:02:43;2.05;;;1.20;;
25153;SDS011;47555;51.038;6.280;2022-09-09T16:05:08;3.83;;;1.83;;
25153;SDS011;47555;51.038;6.280;2022-09-09T16:07:34;2.85;;;1.55;;
25153;SDS011;47555;51.038;6.280;2022-09-09T16:10:00;3.20;;;1.40;;
25153;SDS011;47555;51.038;6.280;2022-09-09T16:12:26;2.65;;;2.45;;
25153;SDS011;47555;51.038;6.280;2022-09-09T16:14:52;5.40;;;2.20;;
25153;SDS011;47555;51.038;6.280;2022-09-09T16:17:17;3.78;;;2.10;;
25153;SDS011;47555;51.038;6.280;2022-09-09T16:19:45;5.40;;;1.92;;
25153;SDS011;47555;51.038;6.280;2022-09-09T16:22:10;4.72;;;2.00;;
25153;SDS011;47555;51.038;6.280;2022-09-09T16:24:36;4.30;;;1.52;;
25153;SDS011;47555;51.038;6.280;2022-09-09T16:27:02;2.58;;;1.73;;
25153;SDS011;47555;51.038;6.280;2022-09-09T16:29:27;4.53;;;2.03;;
25153;SDS011;47555;51.038;6.280;2022-09-09T16:31:53;2.47;;;1.60;;
25153;SDS011;47555;51.038;6.280;2022-09-09T16:34:19;2.60;;;2.08;;
25153;SDS011;47555;51.038;6.280;2022-09-09T16:36:47;4.38;;;1.85;;
25153;SDS011;47555;51.038;6.280;2022-09-09T16:39:14;2.97;;;1.60;;
25153;SDS011;47555;51.038;6.280;2022-09-09T16:41:41;3.35;;;1.80;;
25153;SDS011;47555;51.038;6.280;2022-09-09T16:44:09;5.18;;;1.65;;
25153;SDS011;47555;51.038;6.280;2022-09-09T16:46:37;4.22;;;1.67;;
25153;SDS011;47555;51.038;6.280;2022-09-09T16:49:05;4.05;;;2.38;;
25153;SDS011;47555;51.038;6.280;2022-09-09T16:51:37;5.35;;;1.80;;
25153;SDS011;47555;51.038;6.280;2022-09-09T16:54:05;2.58;;;1.92;;
25153;SDS011;47555;51.038;6.280;2022-09-09T16:56:32;3.63;;;1.58;;
25153;SDS011;47555;51.038;6.280;2022-09-09T16:59:02;3.38;;;1.80;;
25153;SDS011;47555;51.038;6.280;2022-09-09T17:01:30;7.22;;;2.05;;
25153;SDS011;47555;51.038;6.280;2022-09-09T17:04:01;4.22;;;1.73;;
25153;SDS011;47555;51.038;6.280;2022-09-09T17:06:28;2.63;;;1.83;;
25153;SDS011;47555;51.038;6.280;2022-09-09T17:08:59;4.15;;;1.92;;
25153;SDS011;47555;51.038;6.280;2022-09-09T17:11:27;3.70;;;1.50;;